地図

経路データ

SID SEASON NUMBER BASIN SUBBASIN NAME ISO_TIME NATURE LAT LON WMO_WIND WMO_PRES WMO_AGENCY TRACK_TYPE DIST2LAND LANDFALL IFLAG USA_AGENCY USA_ATCF_ID USA_LAT USA_LON USA_RECORD USA_STATUS USA_WIND USA_PRES USA_SSHS USA_R34_NE USA_R34_SE USA_R34_SW USA_R34_NW USA_R50_NE USA_R50_SE USA_R50_SW USA_R50_NW USA_R64_NE USA_R64_SE USA_R64_SW USA_R64_NW USA_POCI USA_ROCI USA_RMW USA_EYE TOKYO_LAT TOKYO_LON TOKYO_GRADE TOKYO_WIND TOKYO_PRES TOKYO_R50_DIR TOKYO_R50_LONG TOKYO_R50_SHORT TOKYO_R30_DIR TOKYO_R30_LONG TOKYO_R30_SHORT TOKYO_LAND CMA_LAT CMA_LON CMA_CAT CMA_WIND CMA_PRES HKO_LAT HKO_LON HKO_CAT HKO_WIND HKO_PRES NEWDELHI_LAT NEWDELHI_LON NEWDELHI_GRADE NEWDELHI_WIND NEWDELHI_PRES NEWDELHI_CI NEWDELHI_DP NEWDELHI_POCI REUNION_LAT REUNION_LON REUNION_TYPE REUNION_WIND REUNION_PRES REUNION_TNUM REUNION_CI REUNION_RMW REUNION_R34_NE REUNION_R34_SE REUNION_R34_SW REUNION_R34_NW REUNION_R50_NE REUNION_R50_SE REUNION_R50_SW REUNION_R50_NW REUNION_R64_NE REUNION_R64_SE REUNION_R64_SW REUNION_R64_NW BOM_LAT BOM_LON BOM_TYPE BOM_WIND BOM_PRES BOM_TNUM BOM_CI BOM_RMW BOM_R34_NE BOM_R34_SE BOM_R34_SW BOM_R34_NW BOM_R50_NE BOM_R50_SE BOM_R50_SW BOM_R50_NW BOM_R64_NE BOM_R64_SE BOM_R64_SW BOM_R64_NW BOM_ROCI BOM_POCI BOM_EYE BOM_POS_METHOD BOM_PRES_METHOD NADI_LAT NADI_LON NADI_CAT NADI_WIND NADI_PRES WELLINGTON_LAT WELLINGTON_LON WELLINGTON_WIND WELLINGTON_PRES DS824_LAT DS824_LON DS824_STAGE DS824_WIND DS824_PRES TD9636_LAT TD9636_LON TD9636_STAGE TD9636_WIND TD9636_PRES TD9635_LAT TD9635_LON TD9635_WIND TD9635_PRES TD9635_ROCI NEUMANN_LAT NEUMANN_LON NEUMANN_CLASS NEUMANN_WIND NEUMANN_PRES MLC_LAT MLC_LON MLC_CLASS MLC_WIND MLC_PRES USA_GUST BOM_GUST BOM_GUST_PER REUNION_GUST REUNION_GUST_PER USA_SEAHGT USA_SEARAD_NE USA_SEARAD_SE USA_SEARAD_SW USA_SEARAD_NW STORM_SPEED STORM_DIR
1883177N20089 1883 15 NI BB NOT_NAMED 1883-06-26 00:00:00 TS 20.0000 89.3000 main 180 169 _________O____ -1 20.0000 89.3000 TC 30 1 342
1883177N20089 1883 15 NI BB NOT_NAMED 1883-06-26 03:00:00 TS 20.0650 89.2750 main 169 156 _________PO___ -1 20.0975 89.2625 TC 30 20.0000 89.3000 1 2 332
1883177N20089 1883 15 NI BB NOT_NAMED 1883-06-26 06:00:00 TS 20.1638 89.2088 main 156 145 _________OP___ -1 20.2000 89.2000 TC 30 20.1094 89.2220 1 3 324
1883177N20089 1883 15 NI BB NOT_NAMED 1883-06-26 09:00:00 TS 20.2679 89.1193 main 145 134 _________PP___ -1 20.3075 89.1000 TC 30 20.2150 89.1451 1 3 320
1883177N20089 1883 15 NI BB NOT_NAMED 1883-06-26 12:00:00 TS 20.3566 89.0353 main 134 134 _________OP___ -1 20.4000 89.0000 TC 30 20.3131 89.0707 1 2 319
1883177N20089 1883 15 NI BB NOT_NAMED 1883-06-26 15:00:00 TS 20.4287 88.9712 main 134 123 _________PO___ -1 20.4575 88.9425 TC 30 20.4000 89.0000 1 2 319
1883177N20089 1883 15 NI BB NOT_NAMED 1883-06-26 18:00:00 TS 20.4862 88.9173 main 123 123 _________OP___ -1 20.5000 88.9000 TC 30 20.4725 88.9347 1 2 319
1883177N20089 1883 15 NI BB NOT_NAMED 1883-06-26 21:00:00 TS 20.5437 88.8600 main 123 111 _________PP___ -1 20.5575 88.8425 TC 30 20.5300 88.8775 1 1 317
1883177N20089 1883 15 NI BB NOT_NAMED 1883-06-27 00:00:00 TS 20.5863 88.8158 main 112 112 _________OP___ -1 20.6000 88.8000 TC 30 20.5725 88.8316 1 1 319
1883177N20089 1883 15 NI BB NOT_NAMED 1883-06-27 03:00:00 TS 20.6038 88.7962 main 112 112 _________PO___ -1 20.6075 88.7925 TC 30 20.6000 88.8000 1 0 0
1883177N20089 1883 15 NI BB NOT_NAMED 1883-06-27 06:00:00 TS 20.6072 88.7928 main 112 112 _________OP___ -1 20.6000 88.8000 TC 30 20.6144 88.7856 1 0 0
1883177N20089 1883 15 NI BB NOT_NAMED 1883-06-27 09:00:00 TS 20.6075 88.7925 main 112 112 _________PP___ -1 20.6000 88.8000 TC 30 20.6150 88.7850 1 0 0
1883177N20089 1883 15 NI BB NOT_NAMED 1883-06-27 12:00:00 TS 20.6041 88.7959 main 112 112 _________OP___ -1 20.6000 88.8000 TC 30 20.6081 88.7919 1 0 0
1883177N20089 1883 15 NI BB NOT_NAMED 1883-06-27 15:00:00 TS 20.6000 88.8000 main 112 112 _________PO___ -1 20.6000 88.8000 TC 30 20.6000 88.8000 1 0 0
1883177N20089 1883 15 NI BB NOT_NAMED 1883-06-27 18:00:00 TS 20.5919 88.8061 main 112 112 _________OP___ -1 20.6000 88.8000 TC 30 20.5837 88.8122 1 0 0
1883177N20089 1883 15 NI BB NOT_NAMED 1883-06-27 21:00:00 TS 20.5775 88.8150 main 112 112 _________PP___ -1 20.5850 88.8075 TC 30 20.5700 88.8224 1 0 0
1883177N20089 1883 15 NI BB NOT_NAMED 1883-06-28 00:00:00 TS 20.5856 88.8108 main 112 112 _________OP___ -1 20.6000 88.8000 TC 30 20.5712 88.8215 1 1 325
1883177N20089 1883 15 NI BB NOT_NAMED 1883-06-28 03:00:00 TS 20.6425 88.7825 main 112 101 _________PO___ -1 20.6850 88.7650 TC 30 20.6000 88.8000 1 2 333
1883177N20089 1883 15 NI BB NOT_NAMED 1883-06-28 06:00:00 TS 20.7356 88.7273 main 102 91 _________OP___ -1 20.8000 88.7000 TC 30 20.6712 88.7547 1 2 327
1883177N20089 1883 15 NI BB NOT_NAMED 1883-06-28 09:00:00 TS 20.8350 88.6475 main 90 78 _________PP___ -1 20.9000 88.6075 TC 30 20.7700 88.6875 1 3 322
1883177N20089 1883 15 NI BB NOT_NAMED 1883-06-28 12:00:00 TS 20.9419 88.5508 main 78 67 _________OP___ -1 21.0000 88.5000 TC 30 20.8837 88.6016 1 3 320
1883177N20089 1883 15 NI BB NOT_NAMED 1883-06-28 15:00:00 TS 21.0500 88.4537 main 67 55 _________PO___ -1 21.1000 88.4075 TC 30 21.0000 88.5000 1 3 322
1883177N20089 1883 15 NI BB NOT_NAMED 1883-06-28 18:00:00 TS 21.1497 88.3750 main 55 44 _________OP___ -1 21.2000 88.3000 TC 30 21.0994 88.4500 1 2 323
1883177N20089 1883 15 NI BB NOT_NAMED 1883-06-28 21:00:00 TS 21.2456 88.2934 main 44 33 _________PP___ -1 21.2922 88.2098 TC 30 21.1990 88.3770 1 3 310
1883177N20089 1883 15 NI BB NOT_NAMED 1883-06-29 00:00:00 TS 21.3496 88.1203 main 35 22 _________OP___ -1 21.4000 88.0000 TC 30 21.2991 88.2405 1 5 296
1883177N20089 1883 15 NI BB NOT_NAMED 1883-06-29 03:00:00 TS 21.4789 87.7764 main 22 0 _________PO___ -1 21.5577 87.5527 TC 30 21.4000 88.0000 1 8 289
1883177N20089 1883 15 NI BB NOT_NAMED 1883-06-29 06:00:00 TS 21.6044 87.3041 main 0 0 _________OP___ -1 21.7000 87.0000 TC 30 21.5088 87.6081 1 9 283
1883177N20089 1883 15 NI BB NOT_NAMED 1883-06-29 09:00:00 TS 21.6903 86.8139 main 0 0 _________PP___ -1 21.7647 86.5148 TC 30 21.6159 87.1129 1 10 279
1883177N20089 1883 15 NI BB NOT_NAMED 1883-06-29 12:00:00 TS 21.7575 86.2806 main 0 0 _________OP___ -1 21.8000 86.0000 TC 30 21.7149 86.5612 1 11 277
1883177N20089 1883 15 NI BB NOT_NAMED 1883-06-29 15:00:00 TS 21.8251 85.6925 main 0 0 _________PO___ -1 21.8502 85.3850 TC 30 21.8000 86.0000 1 11 277
1883177N20089 1883 15 NI BB NOT_NAMED 1883-06-29 18:00:00 TS 21.8866 85.1094 main 0 0 _________OP___ -1 21.9000 84.8000 TC 30 21.8732 85.4188 1 10 277
1883177N20089 1883 15 NI BB NOT_NAMED 1883-06-29 21:00:00 TS 21.9443 84.5800 main 0 0 _________PP___ -1 21.9574 84.3100 TC 30 21.9311 84.8500 1 9 277
1883177N20089 1883 15 NI BB NOT_NAMED 1883-06-30 00:00:00 TS 21.9866 84.1781 main 0 0 _________OP___ -1 22.0000 84.0000 TC 30 21.9733 84.3563 1 6 276
1883177N20089 1883 15 NI BB NOT_NAMED 1883-06-30 03:00:00 TS 22.0037 83.9700 main 0 0 _________PO___ -1 22.0073 83.9400 TC 30 22.0000 84.0000 1 2 275
1883177N20089 1883 15 NI BB NOT_NAMED 1883-06-30 06:00:00 TS 22.0067 83.9280 main 0 0 _________OP___ -1 22.0000 84.0000 TC 30 22.0134 83.8561 1 0 275
1883177N20089 1883 15 NI BB NOT_NAMED 1883-06-30 09:00:00 TS 22.0070 83.9249 main 0 0 _________PP___ -1 22.0000 84.0000 TC 30 22.0140 83.8498 1 0 94
1883177N20089 1883 15 NI BB NOT_NAMED 1883-06-30 12:00:00 TS 22.0038 83.9593 main 0 0 _________OP___ -1 22.0000 84.0000 TC 30 22.0076 83.9186 1 1 96
1883177N20089 1883 15 NI BB NOT_NAMED 1883-06-30 15:00:00 TS 22.0000 84.0000 main 0 0 _________PO___ -1 22.0000 84.0000 TC 30 22.0000 84.0000 1 1 98
1883177N20089 1883 15 NI BB NOT_NAMED 1883-06-30 18:00:00 TS 21.9914 84.0526 main 0 0 _________OP___ -1 22.0000 84.0000 TC 30 21.9829 84.1053 1 1 99
1883177N20089 1883 15 NI BB NOT_NAMED 1883-06-30 21:00:00 TS 21.9803 84.1346 main 0 0 _________PP___ -1 21.9923 84.0749 TC 30 21.9684 84.1943 1 0 100
1883177N20089 1883 15 NI BB NOT_NAMED 1883-07-01 00:00:00 TS 21.9848 84.0931 main 0 0 _________OP___ -1 22.0000 84.0000 TC 30 21.9697 84.1862 1 3 276
1883177N20089 1883 15 NI BB NOT_NAMED 1883-07-01 03:00:00 TS 22.0136 83.8099 main 0 0 _________PO___ -1 22.0273 83.6197 TC 30 22.0000 84.0000 1 7 278
1883177N20089 1883 15 NI BB NOT_NAMED 1883-07-01 06:00:00 TS 22.0871 83.3049 main 0 0 _________OP___ -1 22.1000 83.0000 TC 30 22.0742 83.6098 1 11 280
1883177N20089 1883 15 NI BB NOT_NAMED 1883-07-01 09:00:00 TS 22.2086 82.6599 main 0 0 _________PP___ -1 22.2419 82.2901 TC 30 22.1753 83.0297 1 14 281
1883177N20089 1883 15 NI BB NOT_NAMED 1883-07-01 12:00:00 TS 22.3444 81.8423 main 0 0 _________OP___ -1 22.4000 81.4000 TC 30 22.2888 82.2847 1 17 279
1883177N20089 1883 15 NI BB NOT_NAMED 1883-07-01 15:00:00 TS 22.4575 80.8725 main 0 0 _________PO___ -1 22.5151 80.3449 TC 30 22.4000 81.4000 1 19 276
1883177N20089 1883 15 NI BB NOT_NAMED 1883-07-01 18:00:00 TS 22.5446 79.7965 main 0 0 _________OP___ -1 22.6000 79.2000 TC 30 22.4893 80.3929 1 20 274
1883177N20089 1883 15 NI BB NOT_NAMED 1883-07-01 21:00:00 TS 22.6133 78.6686 main 0 0 _________PP___ -1 22.6573 78.0698 TC 30 22.5693 79.2675 1 21 273
1883177N20089 1883 15 NI AS NOT_NAMED 1883-07-02 00:00:00 TS 22.6696 77.5541 main 0 0 _________OP___ -1 22.7000 77.0000 TC 30 22.6391 78.1083 1 20 273
1883177N20089 1883 15 NI AS NOT_NAMED 1883-07-02 03:00:00 TS 22.7245 76.5312 main 0 0 _________PO___ -1 22.7491 76.0625 TC 30 22.7000 77.0000 1 18 273
1883177N20089 1883 15 NI AS NOT_NAMED 1883-07-02 06:00:00 TS 22.7750 75.6259 main 0 0 _________OP___ -1 22.8000 75.2000 TC 30 22.7500 76.0518 1 16 273
1883177N20089 1883 15 NI AS NOT_NAMED 1883-07-02 09:00:00 TS 22.8228 74.7547 main 0 0 _________PP___ -1 22.8494 74.3424 TC 30 22.7962 75.1669 1 16 274
1883177N20089 1883 15 NI AS NOT_NAMED 1883-07-02 12:00:00 TS 22.8722 73.9118 main 0 0 _________OP___ -1 22.9000 73.5000 TC 30 22.8443 74.3236 1 16 274
1883177N20089 1883 15 NI AS NOT_NAMED 1883-07-02 15:00:00 TS 22.9211 73.0712 main 0 0 _________PO___ -1 22.9422 72.6423 TC 30 22.9000 73.5000 1 16 274
1883177N20089 1883 15 NI AS NOT_NAMED 1883-07-02 18:00:00 TS 22.9860 72.2022 main 0 0 _________OP___ -1 23.0000 71.8000 TC 30 22.9720 72.6043 1 16 276
1883177N20089 1883 15 NI AS NOT_NAMED 1883-07-02 21:00:00 TS 23.0754 71.3355 main 0 0 _________PP___ -1 23.1001 70.9403 TC 30 23.0506 71.7308 1 15 277
1883177N20089 1883 15 NI AS NOT_NAMED 1883-07-03 00:00:00 TS 23.1643 70.5584 main 0 0 _________OP___ -1 23.2000 70.2000 TC 30 23.1287 70.9167 1 13 277
1883177N20089 1883 15 NI AS NOT_NAMED 1883-07-03 03:00:00 TS 23.2284 69.9524 main 0 0 _________PO___ -1 23.2567 69.7048 TC 31 23.2000 70.2000 1 10 276
1883177N20089 1883 15 NI AS NOT_NAMED 1883-07-03 06:00:00 TS 23.2773 69.4641 main 0 0 _________OP___ -1 23.3000 69.3000 TC 32 23.2547 69.6281 1 9 276
1883177N20089 1883 15 NI AS NOT_NAMED 1883-07-03 09:00:00 TS 23.3272 68.9798 main 0 0 _________PP___ -1 23.3499 68.8075 TC 33 23.3044 69.1521 1 9 276
1883177N20089 1883 15 NI AS NOT_NAMED 1883-07-03 12:00:00 TS 23.3760 68.5125 main 10 10 _________OP___ -1 23.4000 68.3000 TC 34 23.3521 68.7250 1 9 277
1883177N20089 1883 15 NI AS NOT_NAMED 1883-07-03 15:00:00 TS 23.4249 68.0500 main 24 30 _________PO___ -1 23.4498 67.8000 TC 36 23.4000 68.3000 2 8 277
1883177N20089 1883 15 NI AS NOT_NAMED 1883-07-03 18:00:00 TS 23.4712 67.6084 main 33 33 _________OP___ -1 23.5000 67.3000 TC 39 23.4496 67.8397 2 9 276
1883177N20089 1883 15 NI AS NOT_NAMED 1883-07-03 21:00:00 TS 23.5202 67.1273 main 60 60 _________PP___ -1 23.5503 66.8001 TC 42 23.5001 67.3454 2 9 276
1883177N20089 1883 15 NI AS NOT_NAMED 1883-07-04 00:00:00 TS 23.5670 66.6523 main 84 84 _________OP___ -1 23.6000 66.3000 TC 45 23.5506 66.8285 2 8 276
1883177N20089 1883 15 NI AS NOT_NAMED 1883-07-04 03:00:00 NR 23.6000 66.3000 main 120 __________O___ -1 TC 23.6000 66.3000 3 6 276

IBTrACS Databaseについて

本データベースは、米国NOAAが公開する1842年以降の世界の熱帯低気圧のベストトラックデータアーカイブInternational Best Track Archive for Climate Stewardship (IBTrACS)を、ウェブで閲覧しやすい形式に変換したものです。

最終更新日:2021-12-01